Latest Weather Observations for Marree Airport

IDS60801

Issued at 7:01 am CST Tuesday 7 April 2020 (issued every 10 minutes, with the page automatically refreshed every 10 minutes)

About weather observations | Map of weather stations | Latest weather observations for SA | Other Formats
Station Details ID: 017126 Name: MARREE AERO Lat: -29.66 Lon: 138.07 Height: 50.0 m
Data from the previous 72 hours. | See also: Recent months at Marree Airport
Date/Time
CST
Temp
°C
App
Temp
°C
Dew
Point
°C
Rel
Hum
%
Delta-T
°C
Wind Press
QNH
hPa
Press
MSL
hPa
Rain since
9am
mm
Dir  Spd
km/h
Gust
km/h
Spd
kts
Gust
kts
07/07:00am 14.3 10.6 6.2 58 3.9 SSE 15 17 8 9 1021.4 1021.2 0.0
07/06:30am 13.7 9.5 5.6 58 3.8 SSE 17 20 9 11 1021.2 1021.0 0.0
07/06:00am 13.7 9.9 5.8 59 3.7 SSE 15 17 8 9 1020.7 1020.5 0.0
07/05:30am 14.2 9.7 6.1 58 3.9 SSE 19 22 10 12 1020.0 1019.8 0.0
07/05:00am 14.9 11.7 7.0 59 3.9 S 13 15 7 8 1019.7 1019.5 0.0
07/04:30am 14.9 12.1 7.0 59 3.9 SSE 11 11 6 6 1019.3 1019.1 0.0
07/04:00am 15.9 13.6 7.4 57 4.2 SSE 9 11 5 6 1019.5 1019.3 0.0
07/03:30am 16.1 13.8 7.3 56 4.4 SSE 9 11 5 6 1019.3 1019.1 0.0
07/03:00am 16.4 14.1 7.3 55 4.5 S 9 9 5 5 1019.3 1019.1 0.0
07/02:30am 17.0 14.3 7.4 53 4.8 SSE 11 11 6 6 1019.3 1019.1 0.0
07/02:00am 17.3 15.0 7.4 52 5.0 SSE 9 9 5 5 1019.3 1019.1 0.0
07/01:30am 18.3 16.0 7.4 49 5.5 ESE 9 11 5 6 1019.2 1019.0 0.0
07/01:00am 19.4 16.7 7.2 45 6.2 ENE 11 13 6 7 1019.3 1019.1 0.0
07/12:30am 18.7 16.3 7.2 47 5.8 ESE 9 11 5 6 1019.7 1019.5 0.0
07/12:00am 18.7 16.0 7.2 47 5.8 ESE 11 13 6 7 1020.0 1019.8 0.0
 
Date/Time
CST
Temp
°C
App
Temp
°C
Dew
Point
°C
Rel
Hum
%
Delta-T
°C
Wind Press
QNH
hPa
Press
MSL
hPa
Rain since
9am
mm
Dir  Spd
km/h
Gust
km/h
Spd
kts
Gust
kts
06/11:30pm 19.4 15.1 7.2 45 6.2 SSE 19 20 10 11 1020.2 1020.0 0.0
06/11:00pm 19.0 15.8 6.8 45 6.1 ESE 13 17 7 9 1020.7 1020.5 0.0
06/10:30pm 18.3 14.6 6.2 45 6.0 SSE 15 15 8 8 1020.4 1020.2 0.0
06/10:00pm 18.3 14.9 5.8 44 6.1 SSE 13 15 7 8 1020.5 1020.3 0.0
06/09:30pm 20.4 16.7 6.4 40 7.0 S 15 17 8 9 1020.4 1020.2 0.0
06/09:00pm 20.7 17.4 6.3 39 7.2 SSW 13 15 7 8 1020.4 1020.2 0.0
06/08:30pm 21.5 17.8 6.2 37 7.7 SSW 15 17 8 9 1020.2 1020.0 0.0
06/08:00pm 22.4 18.3 6.2 35 8.2 SSW 17 20 9 11 1020.1 1019.9 0.0
06/07:30pm 23.1 19.0 6.4 34 8.5 SSW 17 22 9 12 1019.7 1019.5 0.0
06/07:00pm 23.6 22.0 6.4 33 8.8 NNW 4 15 2 8 1019.3 1019.1 0.0
06/06:30pm 24.9 22.8 5.7 29 9.8 N 6 7 3 4 1019.1 1018.9 0.0
06/06:00pm 25.4 23.1 5.6 28 10.1 NNE 7 9 4 5 1018.9 1018.7 0.0
06/05:30pm 26.3 25.0 5.8 27 10.6 ESE 2 6 1 3 1018.7 1018.5 0.0
06/05:00pm 25.6 22.9 5.8 28 10.2 N 9 15 5 8 1018.6 1018.4 0.0
06/04:30pm 25.8 23.4 5.4 27 10.4 NNW 7 13 4 7 1018.6 1018.4 0.0
06/04:00pm 26.0 23.9 5.6 27 10.5 W 6 9 3 5 1018.7 1018.5 0.0
06/03:30pm 25.9 23.6 5.5 27 10.4 E 7 13 4 7 1018.9 1018.7 0.0
06/03:00pm 26.3 24.0 5.8 27 10.6 WNW 7 17 4 9 1019.1 1018.9 0.0
06/02:30pm 25.8 22.9 6.4 29 10.1 SSW 11 20 6 11 1019.0 1018.8 0.0
06/02:00pm 25.0 21.9 5.7 29 9.9 NW 11 19 6 10 1019.5 1019.3 0.0
06/01:30pm 24.9 22.8 5.7 29 9.8 S 6 11 3 6 1019.9 1019.7 0.0
06/01:00pm 25.1 23.1 6.3 30 9.7 WSW 6 11 3 6 1020.3 1020.1 0.0
06/12:30pm 23.5 20.9 5.9 32 8.9 WSW 9 15 5 8 1020.9 1020.7 0.0
06/12:00pm 24.2 22.3 6.5 32 9.1 NE 6 9 3 5 1021.4 1021.2 0.0
06/11:30am 23.3 21.2 6.6 34 8.6 E 7 13 4 7 1022.0 1021.8 0.0
06/11:00am 22.2 20.1 6.8 37 7.9 SSE 7 13 4 7 1022.2 1022.0 0.0
06/10:30am 21.6 18.8 7.1 39 7.4 SE 11 15 6 8 1022.5 1022.3 0.0
06/10:00am 20.9 17.7 6.8 40 7.2 SE 13 19 7 10 1022.7 1022.6 0.0
06/09:30am 20.1 17.3 7.1 43 6.6 SE 11 17 6 9 1023.0 1022.9 0.0
06/09:00am 19.3 16.2 7.4 46 6.0 SE 13 15 7 8 1022.9 1022.8 0.0
06/08:30am 17.9 14.9 7.9 52 5.1 SSE 13 17 7 9 1022.6 1022.4 0.0
06/08:00am 15.0 12.3 7.3 60 3.8 SSE 11 13 6 7 1022.3 1022.1 0.0
06/07:30am 12.5 9.9 6.1 65 3.0 SE 9 11 5 6 1022.1 1021.9 0.0
06/07:00am 11.1 8.8 5.6 69 2.5 SE 7 9 4 5 1021.9 1021.7 0.0
06/06:30am 11.0 7.6 5.7 70 2.4 SSE 13 15 7 8 1021.7 1021.5 0.0
06/06:00am 11.5 7.4 6.2 70 2.5 SSE 17 17 9 9 1021.3 1021.1 0.0
06/05:30am 11.6 7.6 6.5 71 2.4 SSE 17 19 9 10 1020.8 1020.6 0.0
06/05:00am 11.5 8.2 6.6 72 2.3 SE 13 15 7 8 1020.7 1020.5 0.0
06/04:30am 12.5 9.7 7.0 69 2.6 S 11 11 6 6 1020.5 1020.3 0.0
06/04:00am 12.7 9.9 7.0 68 2.8 S 11 11 6 6 1020.2 1020.0 0.0
06/03:30am 13.1 10.3 6.9 66 3.0 S 11 13 6 7 1020.1 1019.9 0.0
06/03:00am 14.7 12.0 7.5 62 3.6 S 11 13 6 7 1020.0 1019.8 0.0
06/02:30am 15.2 11.8 7.5 60 3.8 SSW 15 17 8 9 1019.9 1019.7 0.0
06/02:00am 15.0 11.5 7.3 60 3.8 SSW 15 15 8 8 1019.9 1019.7 0.0
06/01:30am 14.8 11.7 7.4 61 3.6 SW 13 15 7 8 1020.0 1019.8 0.0
06/01:00am 14.8 11.7 7.4 61 3.7 SW 13 15 7 8 1020.1 1019.9 0.0
06/12:30am 15.9 12.1 7.4 57 4.2 SW 17 19 9 10 1020.0 1019.8 0.0
06/12:00am 16.4 12.2 7.3 55 4.5 SW 19 20 10 11 1020.1 1019.9 0.0
 
Date/Time
CST
Temp
°C
App
Temp
°C
Dew
Point
°C
Rel
Hum
%
Delta-T
°C
Wind Press
QNH
hPa
Press
MSL
hPa
Rain since
9am
mm
Dir  Spd
km/h
Gust
km/h
Spd
kts
Gust
kts
05/11:30pm 16.8 12.5 7.2 53 4.8 SW 19 20 10 11 1020.2 1020.0 0.0
05/11:00pm 17.0 13.2 7.4 53 4.8 SW 17 19 9 10 1020.2 1020.0 0.0
05/10:30pm 17.5 13.3 7.3 51 5.1 SW 19 20 10 11 1020.3 1020.1 0.0
05/10:00pm 17.5 13.9 6.7 49 5.4 SW 15 17 8 9 1020.3 1020.1 0.0
05/09:30pm 17.2 13.7 7.0 51 5.1 SW 15 17 8 9 1020.2 1020.0 0.0
05/09:00pm 17.9 14.3 6.7 48 5.6 SW 15 15 8 8 1020.2 1020.0 0.0
05/08:30pm 19.1 15.8 6.2 43 6.4 SSW 13 15 7 8 1019.8 1019.6 0.0
05/08:00pm 19.9 16.2 6.3 41 6.8 SSW 15 17 8 9 1019.7 1019.5 0.0
05/07:30pm 20.6 16.9 6.5 40 7.1 SSW 15 20 8 11 1019.4 1019.2 0.0
05/07:00pm 21.0 17.7 6.5 39 7.3 S 13 15 7 8 1018.9 1018.7 0.0
05/06:30pm 21.9 17.4 6.2 36 7.9 S 19 22 10 12 1018.4 1018.2 0.0
05/06:00pm 22.5 17.9 6.3 35 8.2 SSW 20 26 11 14 1017.9 1017.7 0.0
05/05:30pm 23.1 18.4 6.0 33 8.7 SSW 20 26 11 14 1017.6 1017.4 0.0
05/05:00pm 23.5 19.0 6.3 33 8.8 SW 19 28 10 15 1017.4 1017.2 0.0
05/04:30pm 23.6 18.5 6.0 32 9.0 SW 22 30 12 16 1017.4 1017.2 0.0
05/04:00pm 23.7 18.2 6.0 32 9.0 SW 24 32 13 17 1017.4 1017.2 0.0
05/03:30pm 24.3 19.2 6.1 31 9.3 SW 22 32 12 17 1017.3 1017.1 0.0
05/03:00pm 23.2 18.0 5.6 32 8.9 SSW 22 33 12 18 1017.5 1017.3 0.0
05/02:30pm 22.9 18.2 5.3 32 8.8 SW 19 30 10 16 1018.1 1017.9 0.0
05/02:00pm 23.6 19.4 5.5 31 9.1 SW 17 28 9 15 1018.2 1018.0 0.0
05/01:30pm 22.0 17.7 5.4 34 8.3 SSW 17 32 9 17 1018.8 1018.6 0.0
05/01:00pm 22.2 17.6 5.6 34 8.3 SW 19 35 10 19 1019.2 1019.0 0.0
05/12:30pm 21.5 17.3 5.8 36 7.9 SW 17 26 9 14 1019.7 1019.5 0.0
05/12:00pm 21.9 18.6 6.6 37 7.8 S 13 24 7 13 1020.2 1020.0 0.0
05/11:30am 20.2 17.1 7.2 43 6.6 SW 13 24 7 13 1020.8 1020.6 0.0
05/11:00am 20.1 17.4 7.5 44 6.5 WSW 11 19 6 10 1021.1 1020.9 0.0
05/10:30am 19.4 16.4 7.5 46 6.1 S 13 28 7 15 1021.4 1021.2 0.0
05/10:00am 19.2 15.9 7.9 48 5.8 S 15 22 8 12 1021.6 1021.4 0.0
05/09:30am 18.3 14.0 7.7 50 5.4 S 20 26 11 14 1021.6 1021.4 0.0
05/09:00am 18.0 13.7 8.0 52 5.1 S 20 28 11 15 1021.5 1021.3 0.0
05/08:30am 17.2 12.9 7.8 54 4.7 S 20 24 11 13 1021.2 1021.0 0.0
05/08:00am 15.9 11.8 7.9 59 4.0 SSW 19 20 10 11 1021.0 1020.8 0.0
05/07:30am 14.2 11.3 8.2 67 3.0 SSW 13 15 7 8 1020.7 1020.5 0.0
05/07:00am 11.1 8.5 7.6 79 1.7 SW 11 13 6 7 1020.3 1020.1 0.0
05/06:30am 11.6 8.8 7.1 74 2.2 SW 11 11 6 6 1020.0 1019.8 0.0
05/06:00am 11.7 9.9 7.0 73 2.2 SSW 6 11 3 6 1019.6 1019.4 0.0
05/05:30am 12.7 10.6 6.7 67 2.9 SSW 7 9 4 5 1019.3 1019.1 0.0
05/05:00am 12.6 9.7 6.6 67 2.9 S 11 13 6 7 1018.7 1018.5 0.0
05/04:30am 13.7 9.7 6.8 63 3.3 S 17 17 9 9 1018.5 1018.3 0.0
05/04:00am 14.1 9.7 6.7 61 3.6 SSW 19 20 10 11 1018.3 1018.1 0.0
05/03:30am 14.6 10.2 6.7 59 3.8 SSW 19 20 10 11 1018.4 1018.2 0.0
05/03:00am 15.1 11.1 6.7 57 4.1 SSW 17 20 9 11 1018.5 1018.3 0.0
05/03:30am 15.5 11.1 6.5 55 4.4 SSW 19 22 10 12 1018.5 1018.3 0.0
05/03:00am 15.5 10.9 6.5 55 4.4 SSW 20 24 11 13 1018.5 1018.3 0.0
05/02:30am 15.3 10.5 5.8 53 4.5 SSW 20 22 11 12 1018.5 1018.3 0.0
05/02:00am 15.4 10.8 5.6 52 4.7 SSW 19 20 10 11 1018.5 1018.3 0.0
05/01:30am 15.8 11.2 5.4 50 5.0 SW 19 20 10 11 1018.4 1018.2 0.0
05/01:00am 15.4 10.9 5.9 53 4.6 SW 19 19 10 10 1018.1 1017.9 0.0
05/12:30am 14.1 10.5 6.7 61 3.6 WSW 15 15 8 8 1018.1 1017.9 0.0
05/12:00am 14.6 11.4 6.9 60 3.8 SW 13 15 7 8 1018.1 1017.9 0.0
 
Date/Time
CST
Temp
°C
App
Temp
°C
Dew
Point
°C
Rel
Hum
%
Delta-T
°C
Wind Press
QNH
hPa
Press
MSL
hPa
Rain since
9am
mm
Dir  Spd
km/h
Gust
km/h
Spd
kts
Gust
kts
04/11:30pm 15.2 12.3 6.7 57 4.1 SW 11 13 6 7 1018.1 1017.9 0.0
04/11:00pm 15.8 13.4 6.8 55 4.4 SW 9 9 5 5 1018.0 1017.8 0.0
04/10:30pm 16.6 13.4 6.7 52 4.9 SW 13 15 7 8 1017.9 1017.7 0.0
04/10:00pm 17.2 14.3 6.7 50 5.2 SW 11 13 6 7 1017.6 1017.4 0.0
04/09:30pm 18.8 15.3 5.6 42 6.5 SW 13 15 7 8 1017.2 1017.0 0.0
04/09:00pm 19.4 15.5 5.5 40 6.8 SSW 15 15 8 8 1016.9 1016.7 0.0
04/08:30pm 20.2 15.9 5.1 37 7.4 SW 17 20 9 11 1016.7 1016.5 0.0
04/08:00pm 20.9 16.1 4.5 34 8.0 SW 19 20 10 11 1016.3 1016.1 0.0
04/07:30pm 21.5 16.6 5.0 34 8.1 SW 20 28 11 15 1015.9 1015.7 0.0
04/07:00pm 22.1 16.1 5.1 33 8.4 SW 26 35 14 19 1015.5 1015.3 0.0
04/06:30pm 22.7 16.2 4.7 31 8.9 SW 28 39 15 21 1015.0 1014.8 0.0
04/06:00pm 23.3 16.7 4.3 29 9.4 SW 28 35 15 19 1014.6 1014.4 0.0
04/05:30pm 23.7 17.3 5.1 30 9.3 SSW 28 37 15 20 1014.6 1014.4 0.0
04/05:00pm 23.2 16.7 4.7 30 9.2 SSW 28 41 15 22 1014.6 1014.4 0.0
04/04:30pm 23.5 16.7 4.9 30 9.3 SW 30 41 16 22 1014.7 1014.5 0.0
04/04:07pm 23.3 16.4 4.8 30 9.2 SW 30 48 16 26 1014.8 1014.6 0.0
04/04:00pm 23.0 15.7 5.4 32 8.8 SW 33 48 18 26 1014.9 1014.7 0.0
04/03:30pm 22.9 16.9 5.3 32 8.8 SW 26 43 14 23 1014.9 1014.7 0.0
04/03:00pm 22.5 17.0 5.9 34 8.4 SW 24 35 13 19 1015.1 1014.9 0.0
04/02:30pm 22.1 16.3 6.3 36 8.0 SSW 26 39 14 21 1015.3 1015.1 0.0
04/02:00pm 21.3 16.1 5.6 36 7.8 SSW 22 37 12 20 1015.7 1015.5 0.0
04/01:30pm 21.1 14.8 5.9 37 7.6 SW 28 41 15 22 1016.0 1015.8 0.0
04/01:00pm 20.8 14.2 6.0 38 7.4 SSW 30 39 16 21 1016.4 1016.2 0.0
04/12:30pm 20.4 14.1 5.6 38 7.3 SSW 28 39 15 21 1016.7 1016.5 0.0
04/12:00pm 20.6 13.7 6.5 40 7.1 SSW 32 44 17 24 1016.8 1016.6 0.0
04/11:30am 19.8 12.7 6.5 42 6.7 SSW 33 46 18 25 1017.0 1016.8 0.0
04/11:00am 19.0 11.9 6.2 43 6.4 SSW 33 52 18 28 1016.6 1016.4 0.0
04/10:30am 18.2 10.9 7.0 48 5.6 SSW 35 43 19 23 1016.6 1016.4 0.0
04/10:00am 17.6 10.8 9.2 58 4.4 SW 35 46 19 25 1016.3 1016.1 0.0
04/09:30am 16.6 9.8 9.3 62 3.8 SW 35 43 19 23 1015.8 1015.6 0.0
04/09:00am 15.5 10.1 9.4 67 3.2 SW 28 35 15 19 1015.4 1015.2 0.2
04/08:30am 14.7 10.4 9.5 71 2.7 WSW 22 28 12 15 1015.0 1014.8 0.2

Other formats

Comma delimited format used in spreadsheet applications
http://www.bom.gov.au/fwo/IDS60801/IDS60801.95480.axf

JavaScript Object Notation format (JSON) in row-major order
http://www.bom.gov.au/fwo/IDS60801/IDS60801.95480.json

Data quality

Most of these data are generated automatically and are frequently updated. Quality checks on data are not normally performed. It is possible for incorrect values to appear. Refer to information at About Latest Weather Observations and please check the disclaimer before using these data.